Time;durP1;ratioP1;P1;durP2;ratioP2;P2;SDS_P1;SDS_P2;PMS_P1;PMS_P2;Temp;Humidity;BMP_temperature;BMP_pressure;BME280_temperature;BME280_humidity;BME280_pressure;Samples;Min_cycle;Max_cycle;Signal;HPM_P1;HPM_P2
2021/08/03 00:01:42;;;;;;;1.48;0.50;;;12.70;99.90;;;;;;4878248;29;20059;-81
2021/08/03 00:04:12;;;;;;;1.23;0.57;;;12.70;99.90;;;;;;4878169;29;20077;-81
2021/08/03 00:06:52;;;;;;;1.40;0.50;;;12.70;99.90;;;;;;4910713;29;20035;-81
2021/08/03 00:09:19;;;;;;;1.50;0.60;;;12.60;99.90;;;;;;4894001;29;20055;-81
2021/08/03 00:11:46;;;;;;;1.48;0.50;;;12.60;99.90;;;;;;4878043;29;20557;-81
2021/08/03 00:14:11;;;;;;;2.00;0.70;;;12.50;99.90;;;;;;4893703;29;20083;-81
2021/08/03 00:16:39;;;;;;;3.42;0.70;;;12.50;99.90;;;;;;4903877;29;20485;-81
2021/08/03 00:19:06;;;;;;;1.92;0.70;;;12.50;99.90;;;;;;4896537;29;20040;-80
2021/08/03 00:21:32;;;;;;;2.03;0.57;;;12.40;99.90;;;;;;4912056;29;20032;-81
2021/08/03 00:23:58;;;;;;;1.40;0.57;;;12.40;99.90;;;;;;4912418;29;20061;-81
2021/08/03 00:26:24;;;;;;;1.80;0.50;;;12.40;99.90;;;;;;4912593;29;20044;-81
2021/08/03 00:28:50;;;;;;;1.58;0.65;;;12.50;99.90;;;;;;4912240;29;20123;-80
2021/08/03 00:31:19;;;;;;;1.50;0.50;;;12.50;99.90;;;;;;4896947;29;20123;-81
2021/08/03 00:33:46;;;;;;;2.00;0.60;;;12.40;99.90;;;;;;4896485;29;20036;-81
2021/08/03 00:36:12;;;;;;;1.98;0.68;;;12.30;99.90;;;;;;4893821;29;20033;-81
2021/08/03 00:38:38;;;;;;;1.50;0.52;;;12.30;99.90;;;;;;4893863;29;20065;-81
2021/08/03 00:41:09;;;;;;;2.42;0.52;;;12.30;99.90;;;;;;4879066;29;20052;-80
2021/08/03 00:43:35;;;;;;;2.13;0.52;;;12.30;99.90;;;;;;4895083;29;20032;-81
2021/08/03 00:46:01;;;;;;;1.77;0.50;;;12.20;99.90;;;;;;4893185;29;20024;-81
2021/08/03 00:48:27;;;;;;;1.55;0.60;;;12.20;99.90;;;;;;4877748;29;20035;-81
2021/08/03 00:50:52;;;;;;;2.35;0.50;;;12.30;99.90;;;;;;4892981;29;20039;-80
2021/08/03 00:53:18;;;;;;;1.77;0.77;;;12.40;99.90;;;;;;4893238;29;20033;-81
2021/08/03 00:55:45;;;;;;;2.10;0.73;;;12.30;99.90;;;;;;4893415;29;20036;-81
2021/08/03 00:58:12;;;;;;;1.95;0.80;;;12.20;99.90;;;;;;4877619;29;20040;-81
2021/08/03 01:00:39;;;;;;;1.42;0.50;;;12.30;99.90;;;;;;4893043;29;20036;-81
2021/08/03 01:03:06;;;;;;;1.90;0.70;;;12.30;99.90;;;;;;4877727;29;20115;-80
2021/08/03 01:05:45;;;;;;;2.45;0.63;;;12.20;99.90;;;;;;4877639;29;20029;-81
2021/08/03 01:08:14;;;;;;;2.00;0.70;;;12.20;99.90;;;;;;4893144;29;20039;-81
2021/08/03 01:10:53;;;;;;;2.20;0.67;;;12.30;99.90;;;;;;4877650;29;20032;-81
2021/08/03 01:13:57;;;;;;;1.83;0.57;;;12.30;99.90;;;;;;4877447;29;20032;-81
2021/08/03 01:16:47;;;;;;;1.90;0.50;;;12.30;99.90;;;;;;4868260;29;20072;-81
2021/08/03 01:19:19;;;;;;;1.77;0.60;;;12.40;99.90;;;;;;4911735;29;20040;-81
2021/08/03 01:21:51;;;;;;;2.92;0.50;;;12.50;99.90;;;;;;4911923;29;20028;-81
2021/08/03 01:24:49;;;;;;;2.83;0.73;;;12.60;99.90;;;;;;4896430;29;20096;-81
2021/08/03 01:27:47;;;;;;;3.17;0.57;;;12.60;99.90;;;;;;4896043;29;20266;-81
2021/08/03 01:30:13;;;;;;;2.40;0.70;;;12.60;99.90;;;;;;4896000;29;20036;-81
2021/08/03 01:32:41;;;;;;;3.47;0.60;;;12.60;99.90;;;;;;4913527;29;20028;-81
2021/08/03 01:35:09;;;;;;;1.55;0.60;;;12.60;99.90;;;;;;4899374;29;20043;-80
2021/08/03 01:37:35;;;;;;;4.03;0.52;;;12.60;99.90;;;;;;4886010;29;20079;-81
2021/08/03 01:40:09;;;;;;;2.47;0.60;;;12.60;99.90;;;;;;4881149;29;20036;-81
2021/08/03 01:42:41;;;;;;;1.42;0.60;;;12.60;99.90;;;;;;4880848;29;20164;-81
2021/08/03 01:45:10;;;;;;;1.52;0.55;;;12.60;99.90;;;;;;4896070;29;20044;-80
2021/08/03 01:47:37;;;;;;;2.17;0.60;;;12.60;99.90;;;;;;4880488;29;20032;-81
2021/08/03 01:50:07;;;;;;;2.15;0.60;;;12.50;99.90;;;;;;4895998;29;20060;-81
2021/08/03 01:52:34;;;;;;;2.92;0.55;;;12.50;99.90;;;;;;4880638;29;20055;-81
2021/08/03 01:55:03;;;;;;;1.65;0.50;;;12.60;99.90;;;;;;4896609;29;20029;-80
2021/08/03 01:57:39;;;;;;;1.52;0.65;;;12.50;99.90;;;;;;4896006;29;20048;-81
2021/08/03 02:00:09;;;;;;;1.67;0.60;;;12.50;99.90;;;;;;4880762;29;20032;-81
2021/08/03 02:02:42;;;;;;;3.17;0.75;;;12.50;99.90;;;;;;4912849;29;20092;-82
2021/08/03 02:05:11;;;;;;;1.60;0.60;;;12.40;99.90;;;;;;4880448;29;20039;-80
2021/08/03 02:07:44;;;;;;;1.30;0.50;;;12.40;99.90;;;;;;4881263;29;20033;-80
2021/08/03 02:10:19;;;;;;;2.58;0.60;;;12.40;99.90;;;;;;4881066;29;20028;-80
2021/08/03 02:12:48;;;;;;;1.63;0.60;;;12.30;99.90;;;;;;4880239;29;20060;-82
2021/08/03 02:15:14;;;;;;;2.70;0.80;;;12.40;99.90;;;;;;4880099;29;20051;-81
2021/08/03 02:17:41;;;;;;;3.35;0.88;;;12.40;99.90;;;;;;4899208;29;20040;-80
2021/08/03 02:20:22;;;;;;;2.17;0.70;;;12.50;99.90;;;;;;4901897;29;20063;-80
2021/08/03 02:22:54;;;;;;;2.17;0.70;;;12.40;99.90;;;;;;4915726;29;20032;-81
2021/08/03 02:25:25;;;;;;;1.70;0.52;;;12.40;99.90;;;;;;4899448;29;20043;-83
2021/08/03 02:27:54;;;;;;;1.90;0.50;;;12.50;99.90;;;;;;4898696;29;20028;-81
2021/08/03 02:30:21;;;;;;;2.00;0.50;;;12.40;99.90;;;;;;4898598;29;20069;-80
2021/08/03 02:32:58;;;;;;;2.70;0.60;;;12.50;99.90;;;;;;4931149;29;20039;-81
2021/08/03 02:35:31;;;;;;;4.25;0.60;;;12.50;99.90;;;;;;4917561;23;20088;-81
2021/08/03 02:38:04;;;;;;;1.60;0.60;;;12.50;99.90;;;;;;4895377;29;20036;-81
2021/08/03 02:40:39;;;;;;;1.15;0.60;;;12.50;99.90;;;;;;4911189;29;20029;-80
2021/08/03 02:43:17;;;;;;;1.85;0.50;;;12.50;99.90;;;;;;4911071;29;20033;-82
2021/08/03 02:45:47;;;;;;;1.27;0.50;;;12.50;99.90;;;;;;4910805;29;20366;-80
2021/08/03 02:48:15;;;;;;;1.38;0.50;;;12.40;99.90;;;;;;4910544;29;20037;-80
2021/08/03 02:50:45;;;;;;;2.33;0.52;;;12.40;99.90;;;;;;4910468;29;20032;-81
2021/08/03 02:53:28;;;;;;;2.28;0.60;;;12.40;99.90;;;;;;4894956;29;20033;-81
2021/08/03 02:56:00;;;;;;;1.88;0.50;;;12.40;99.90;;;;;;4894796;29;20029;-81
2021/08/03 02:58:37;;;;;;;1.33;0.60;;;12.40;99.90;;;;;;4909623;29;20516;-81
2021/08/03 03:01:05;;;;;;;2.28;0.57;;;12.40;99.90;;;;;;4894557;29;20040;-80
2021/08/03 03:03:34;;;;;;;2.58;0.60;;;12.30;99.90;;;;;;4894840;29;20060;-81
2021/08/03 03:06:04;;;;;;;1.35;0.60;;;12.30;99.90;;;;;;4910142;29;20032;-81
2021/08/03 03:08:33;;;;;;;2.08;0.63;;;12.40;99.90;;;;;;4910278;29;20025;-81
2021/08/03 03:11:02;;;;;;;2.25;0.70;;;12.30;99.90;;;;;;4911400;29;20043;-80
2021/08/03 03:13:36;;;;;;;4.10;0.60;;;12.40;99.90;;;;;;4910473;29;20025;-81
2021/08/03 03:16:03;;;;;;;1.20;0.60;;;12.30;99.90;;;;;;4900283;29;20032;-80
2021/08/03 03:18:29;;;;;;;2.15;0.60;;;12.40;99.90;;;;;;4913099;29;20036;-81
2021/08/03 03:20:56;;;;;;;3.30;0.60;;;12.40;99.90;;;;;;4897472;29;20036;-80
2021/08/03 03:23:24;;;;;;;2.80;0.70;;;12.40;99.90;;;;;;4897733;29;20091;-81
2021/08/03 03:25:52;;;;;;;1.25;0.55;;;12.40;99.90;;;;;;4897528;29;20111;-81
2021/08/03 03:28:23;;;;;;;1.70;0.60;;;12.30;99.90;;;;;;4913068;29;20077;-81
2021/08/03 03:30:51;;;;;;;2.45;0.63;;;12.30;99.90;;;;;;4913032;29;20032;-81
2021/08/03 03:33:18;;;;;;;1.83;0.63;;;12.30;99.90;;;;;;4897418;29;20032;-81
2021/08/03 03:35:47;;;;;;;1.98;0.63;;;12.30;99.90;;;;;;4912789;29;20056;-81
2021/08/03 03:38:21;;;;;;;1.80;0.63;;;12.30;99.90;;;;;;4909605;29;20075;-81
2021/08/03 03:40:48;;;;;;;2.00;0.60;;;12.30;99.90;;;;;;4909653;29;20028;-81
2021/08/03 03:43:18;;;;;;;1.58;0.60;;;12.30;99.90;;;;;;4878639;29;20033;-81
2021/08/03 03:45:46;;;;;;;;;;;12.30;99.90;;;;;;4910252;29;20028;-80
2021/08/03 03:48:13;;;;;;;2.40;0.60;;;12.30;99.90;;;;;;4909405;29;19911;-80
2021/08/03 03:50:53;;;;;;;2.40;0.60;;;12.30;99.90;;;;;;4893792;29;20036;-81
2021/08/03 03:53:21;;;;;;;2.85;0.70;;;12.30;99.90;;;;;;4893738;29;20032;-81
2021/08/03 03:55:57;;;;;;;1.25;0.60;;;12.30;99.90;;;;;;4893441;29;20120;-81
2021/08/03 03:58:24;;;;;;;5.38;1.45;;;12.30;99.90;;;;;;4910730;29;20044;-80
2021/08/03 04:00:53;;;;;;;2.33;0.68;;;12.40;99.90;;;;;;4909338;29;20033;-80
2021/08/03 04:03:21;;;;;;;2.45;0.70;;;12.40;99.90;;;;;;4910639;29;20561;-80
2021/08/03 04:05:50;;;;;;;2.10;0.80;;;12.30;99.90;;;;;;4909177;29;20496;-81
2021/08/03 04:08:16;;;;;;;3.20;0.80;;;12.30;99.90;;;;;;4909187;29;20043;-81
2021/08/03 04:10:43;;;;;;;2.42;0.85;;;12.40;99.90;;;;;;4893573;29;20032;-80
2021/08/03 04:13:10;;;;;;;1.58;0.60;;;12.40;99.90;;;;;;4908952;29;20499;-81
2021/08/03 04:15:36;;;;;;;2.20;0.50;;;12.40;99.90;;;;;;4911109;29;20146;-81
2021/08/03 04:18:03;;;;;;;2.78;0.70;;;12.40;99.90;;;;;;4895994;29;20040;-81
2021/08/03 04:20:29;;;;;;;2.03;0.60;;;12.40;99.90;;;;;;4912548;29;20416;-80
2021/08/03 04:23:00;;;;;;;2.35;0.60;;;12.40;99.90;;;;;;4912379;29;20096;-80
2021/08/03 04:25:26;;;;;;;2.13;0.73;;;12.40;99.90;;;;;;4912230;29;20392;-80
2021/08/03 04:27:52;;;;;;;1.65;0.57;;;12.40;99.90;;;;;;4895797;29;20048;-80
2021/08/03 04:30:18;;;;;;;3.08;0.60;;;12.50;99.90;;;;;;4895775;29;20043;-80
2021/08/03 04:32:44;;;;;;;2.22;0.70;;;12.40;99.90;;;;;;4911346;29;20028;-81
2021/08/03 04:35:10;;;;;;;2.05;0.70;;;12.50;99.90;;;;;;4911169;29;20505;-80
2021/08/03 04:37:41;;;;;;;3.25;0.80;;;12.50;99.90;;;;;;4882177;29;20039;-81
2021/08/03 04:40:07;;;;;;;1.92;0.80;;;12.50;99.90;;;;;;4908161;29;20040;-81
2021/08/03 04:42:34;;;;;;;1.70;0.70;;;12.50;99.90;;;;;;4908189;29;20101;-80
2021/08/03 04:45:00;;;;;;;1.52;0.77;;;12.50;99.90;;;;;;4908183;29;20067;-80
2021/08/03 04:47:25;;;;;;;1.52;0.68;;;12.50;99.90;;;;;;4933075;23;20024;-81
2021/08/03 04:49:51;;;;;;;1.75;0.80;;;12.50;99.90;;;;;;4914225;29;20067;-80
2021/08/03 04:52:17;;;;;;;6.95;1.55;;;12.50;99.90;;;;;;4914988;29;20071;-80
2021/08/03 04:54:43;;;;;;;3.53;0.80;;;12.60;99.90;;;;;;4914969;29;20038;-81
2021/08/03 04:57:09;;;;;;;2.33;0.65;;;12.60;99.90;;;;;;4930412;29;20071;-82
2021/08/03 04:59:34;;;;;;;2.95;0.93;;;12.60;99.90;;;;;;4914664;29;20124;-81
2021/08/03 05:02:01;;;;;;;2.28;0.70;;;12.70;99.90;;;;;;4914078;29;20035;-82
2021/08/03 05:04:29;;;;;;;2.53;0.82;;;12.70;99.90;;;;;;4946175;29;20055;-80
2021/08/03 05:06:55;;;;;;;1.20;0.60;;;12.70;99.90;;;;;;4947760;29;20020;-80
2021/08/03 05:09:21;;;;;;;1.50;0.70;;;12.80;99.90;;;;;;4917871;29;20036;-81
2021/08/03 05:11:46;;;;;;;1.85;0.68;;;12.80;99.90;;;;;;4928549;29;20368;-79
2021/08/03 05:14:12;;;;;;;3.22;0.80;;;12.90;99.90;;;;;;4950911;29;20032;-80
2021/08/03 05:16:50;;;;;;;1.70;0.70;;;12.90;99.90;;;;;;4933750;29;20036;-90
2021/08/03 05:19:28;;;;;;;2.78;0.82;;;13.00;99.90;;;;;;4917664;29;20079;-80
2021/08/03 05:21:53;;;;;;;1.83;0.70;;;12.90;99.90;;;;;;4949492;29;20472;-79
2021/08/03 05:24:25;;;;;;;2.85;0.60;;;13.00;99.90;;;;;;4933624;29;20036;-80
2021/08/03 05:27:00;;;;;;;2.25;1.08;;;13.00;99.90;;;;;;4933521;29;20052;-79
2021/08/03 05:29:27;;;;;;;1.80;0.80;;;13.10;99.90;;;;;;4925355;29;20036;-80
2021/08/03 05:31:54;;;;;;;1.55;0.55;;;13.10;99.90;;;;;;4931829;29;20103;-81
2021/08/03 05:34:20;;;;;;;2.85;0.90;;;13.10;99.90;;;;;;4898903;29;20032;-80
2021/08/03 05:36:45;;;;;;;3.53;0.70;;;13.20;99.90;;;;;;4937301;29;20032;-81
2021/08/03 05:39:14;;;;;;;3.72;0.75;;;13.20;99.90;;;;;;4933474;29;20032;-80
2021/08/03 05:41:41;;;;;;;;;;;13.30;99.90;;;;;;4917859;29;20054;-79
2021/08/03 05:44:07;;;;;;;1.40;0.60;;;13.30;99.90;;;;;;4917656;29;19912;-81
2021/08/03 05:46:33;;;;;;;2.55;0.68;;;13.40;99.90;;;;;;4943590;29;20214;-80
2021/08/03 05:49:02;;;;;;;4.43;0.80;;;13.40;99.90;;;;;;4948619;29;20044;-80
2021/08/03 05:51:28;;;;;;;2.28;0.70;;;13.40;99.90;;;;;;4932881;29;20038;-80
2021/08/03 05:53:54;;;;;;;2.13;0.82;;;13.40;99.90;;;;;;4932976;29;20048;-81
2021/08/03 05:56:19;;;;;;;1.77;0.60;;;13.40;99.90;;;;;;4916756;29;20139;-80
2021/08/03 05:58:45;;;;;;;2.90;0.80;;;13.40;99.90;;;;;;4947326;29;20051;-81
2021/08/03 06:01:10;;;;;;;5.80;1.00;;;13.50;99.90;;;;;;4940442;29;20114;-82
2021/08/03 06:03:36;;;;;;;2.53;1.00;;;13.50;99.90;;;;;;4951258;29;20042;-84
2021/08/03 06:06:05;;;;;;;2.47;0.90;;;13.60;99.90;;;;;;4933971;29;20086;-87
2021/08/03 06:08:32;;;;;;;3.47;1.38;;;13.70;99.90;;;;;;4949864;29;20131;-85
2021/08/03 06:10:59;;;;;;;2.92;1.08;;;13.70;99.90;;;;;;4936194;29;20156;-83
2021/08/03 06:13:26;;;;;;;3.47;1.65;;;13.80;99.90;;;;;;4942173;29;20043;-81
2021/08/03 06:15:53;;;;;;;3.10;2.00;;;13.90;99.90;;;;;;4952091;29;20028;-81
2021/08/03 06:18:24;;;;;;;4.30;2.22;;;14.00;99.90;;;;;;4933541;29;20048;-81
2021/08/03 06:20:50;;;;;;;3.97;1.65;;;14.10;99.90;;;;;;4932567;29;20024;-81
2021/08/03 06:23:17;;;;;;;4.63;2.92;;;14.20;99.90;;;;;;4948604;29;20056;-81
2021/08/03 06:25:44;;;;;;;3.22;2.08;;;14.30;99.90;;;;;;4948217;29;20125;-85
2021/08/03 06:28:10;;;;;;;3.58;1.30;;;14.50;99.90;;;;;;4932442;29;20076;-84
2021/08/03 06:30:38;;;;;;;3.85;1.60;;;14.70;99.90;;;;;;4949776;29;20040;-85
2021/08/03 06:33:06;;;;;;;3.50;2.80;;;14.80;99.90;;;;;;4948555;29;20126;-83
2021/08/03 06:35:32;;;;;;;3.45;2.63;;;14.80;99.90;;;;;;4932445;29;20032;-83
2021/08/03 06:37:58;;;;;;;5.28;3.30;;;14.90;99.90;;;;;;4934950;29;20103;-81
2021/08/03 06:40:24;;;;;;;3.95;3.25;;;15.00;99.90;;;;;;4947952;29;20036;-89
2021/08/03 06:43:01;;;;;;;5.35;3.42;;;15.10;99.90;;;;;;4948055;29;20061;-81
2021/08/03 06:45:31;;;;;;;7.63;5.30;;;15.10;99.90;;;;;;4931769;29;20030;-81
2021/08/03 06:48:06;;;;;;;8.60;6.63;;;15.10;99.90;;;;;;4931632;29;20044;-80
2021/08/03 06:50:35;;;;;;;9.88;7.40;;;15.10;99.90;;;;;;4947795;29;20095;-81
2021/08/03 06:53:04;;;;;;;7.85;6.50;;;15.20;99.90;;;;;;4949219;29;20039;-80
2021/08/03 06:55:32;;;;;;;6.93;5.75;;;15.20;99.90;;;;;;4947498;29;20066;-81
2021/08/03 06:58:04;;;;;;;9.68;7.28;;;15.30;99.90;;;;;;4948892;29;20122;-80
2021/08/03 07:00:38;;;;;;;10.57;7.53;;;15.30;99.90;;;;;;4947480;29;20404;-81
2021/08/03 07:03:06;;;;;;;13.45;9.85;;;15.40;99.90;;;;;;4948897;29;20027;-80
2021/08/03 07:05:34;;;;;;;11.13;8.55;;;15.40;99.90;;;;;;4931622;29;20095;-80
2021/08/03 07:08:00;;;;;;;12.25;8.52;;;15.50;99.90;;;;;;4931607;29;20039;-80
2021/08/03 07:10:28;;;;;;;11.20;8.85;;;15.50;99.90;;;;;;4947071;29;20036;-80
2021/08/03 07:12:54;;;;;;;12.73;8.98;;;15.60;99.90;;;;;;4931607;29;20122;-81
2021/08/03 07:15:21;;;;;;;11.35;8.25;;;15.70;99.90;;;;;;4947053;29;20111;-80
2021/08/03 07:17:47;;;;;;;11.38;7.93;;;15.70;99.90;;;;;;4948293;29;20046;-80
2021/08/03 07:20:15;;;;;;;8.93;7.05;;;15.80;99.90;;;;;;4931240;29;20185;-80
2021/08/03 07:22:41;;;;;;;13.15;8.38;;;15.80;99.90;;;;;;4947550;29;20461;-81
2021/08/03 07:25:09;;;;;;;11.93;9.45;;;15.80;99.90;;;;;;4948501;29;20038;-80
2021/08/03 07:27:35;;;;;;;14.43;9.73;;;15.80;99.90;;;;;;4947197;29;20074;-81
2021/08/03 07:30:01;;;;;;;12.10;10.00;;;15.90;99.90;;;;;;4930219;29;20039;-81
2021/08/03 07:32:26;;;;;;;17.85;10.50;;;15.90;99.90;;;;;;4947442;29;20034;-80
2021/08/03 07:34:52;;;;;;;12.93;9.73;;;15.90;99.90;;;;;;4931264;29;20469;-81
2021/08/03 07:37:18;;;;;;;13.32;9.70;;;15.90;99.90;;;;;;4948214;29;20035;-80
2021/08/03 07:39:43;;;;;;;12.15;10.77;;;16.00;99.90;;;;;;4915343;29;20046;-80
2021/08/03 07:42:10;;;;;;;15.80;11.48;;;16.00;99.90;;;;;;4948221;29;20107;-81
2021/08/03 07:44:36;;;;;;;12.18;9.98;;;16.00;99.90;;;;;;4915197;29;20401;-80
2021/08/03 07:49:59;;;;;;;14.82;10.70;;;16.00;99.90;;;;;;4908836;29;20090;-81
2021/08/03 07:52:25;;;;;;;14.05;11.40;;;16.10;99.90;;;;;;4893615;29;20036;-80
2021/08/03 07:54:50;;;;;;;13.88;9.65;;;16.10;99.90;;;;;;4878168;29;20032;-81
2021/08/03 07:57:16;;;;;;;15.50;11.95;;;16.20;99.90;;;;;;4910459;29;20064;-81
2021/08/03 07:59:42;;;;;;;14.38;11.32;;;16.20;99.90;;;;;;4893886;29;20043;-80
2021/08/03 08:02:07;;;;;;;13.30;10.95;;;16.30;99.90;;;;;;4910448;29;20024;-80
2021/08/03 08:04:33;;;;;;;15.98;10.77;;;16.40;99.90;;;;;;4910264;29;20044;-80
2021/08/03 08:06:58;;;;;;;18.55;12.32;;;16.50;99.90;;;;;;4893403;29;20083;-81
2021/08/03 08:09:24;;;;;;;16.40;13.32;;;16.40;99.90;;;;;;4909134;29;20092;-80
2021/08/03 08:11:50;;;;;;;14.30;11.40;;;16.40;99.90;;;;;;4877954;29;20028;-81
2021/08/03 08:14:15;;;;;;;18.90;13.65;;;16.60;99.90;;;;;;4910130;29;20037;-81
2021/08/03 08:16:41;;;;;;;19.13;13.95;;;16.50;99.90;;;;;;4904076;29;20043;-80
2021/08/03 08:19:07;;;;;;;16.65;12.00;;;16.60;99.90;;;;;;4928667;29;20052;-81
2021/08/03 08:21:33;;;;;;;16.00;12.50;;;16.80;99.90;;;;;;4896080;29;20032;-80
2021/08/03 08:24:04;;;;;;;16.88;11.98;;;16.80;99.90;;;;;;4896087;29;20051;-79
2021/08/03 08:26:30;;;;;;;16.75;12.63;;;16.90;99.90;;;;;;4911396;29;20103;-81
2021/08/03 08:28:56;;;;;;;19.63;12.25;;;17.00;99.90;;;;;;4896139;29;20480;-82
2021/08/03 08:31:22;;;;;;;14.35;11.82;;;17.00;99.90;;;;;;4911659;29;20036;-80
2021/08/03 08:33:47;;;;;;;20.63;13.00;;;17.20;99.90;;;;;;4912055;29;20036;-80
2021/08/03 08:36:13;;;;;;;13.98;10.98;;;17.30;99.90;;;;;;4894192;29;20355;-81
2021/08/03 08:38:38;;;;;;;14.90;11.63;;;17.50;99.90;;;;;;4908479;29;20044;-79
2021/08/03 08:41:05;;;;;;;16.30;11.27;;;17.50;99.90;;;;;;4908003;29;20052;-79
2021/08/03 08:43:31;;;;;;;8.93;7.05;;;17.60;99.90;;;;;;4909761;29;20077;-81
2021/08/03 08:45:57;;;;;;;12.15;9.68;;;17.80;99.90;;;;;;4908429;29;20028;-81
2021/08/03 08:48:23;;;;;;;12.65;9.27;;;17.90;99.90;;;;;;4911083;29;20091;-81
2021/08/03 08:50:55;;;;;;;11.18;8.85;;;17.70;99.90;;;;;;4911232;29;20036;-81
2021/08/03 08:53:25;;;;;;;12.77;8.80;;;17.80;99.90;;;;;;4911387;29;20043;-80
2021/08/03 08:55:50;;;;;;;11.70;8.63;;;17.90;99.90;;;;;;4911359;29;20028;-81
2021/08/03 08:58:16;;;;;;;12.65;8.27;;;18.00;99.90;;;;;;4911291;29;20055;-81
2021/08/03 09:00:42;;;;;;;12.70;8.10;;;18.00;99.90;;;;;;4895370;29;20040;-81
2021/08/03 09:03:07;;;;;;;12.00;8.32;;;18.10;99.90;;;;;;4895844;29;20040;-81
2021/08/03 09:05:37;;;;;;;10.07;7.43;;;18.20;99.90;;;;;;4911282;29;20036;-81
2021/08/03 09:08:03;;;;;;;;;;;18.60;99.90;;;;;;4896156;29;20404;-79
2021/08/03 09:10:31;;;;;;;10.65;7.25;;;18.70;99.90;;;;;;4911167;29;19915;-79
2021/08/03 09:13:15;;;;;;;13.60;7.47;;;18.70;99.90;;;;;;4926808;29;20072;-79
2021/08/03 09:15:56;;;;;;;10.02;7.95;;;19.00;99.90;;;;;;4931061;29;20027;-79
2021/08/03 09:18:35;;;;;;;9.90;7.47;;;19.20;99.90;;;;;;4946962;29;20040;-79
2021/08/03 09:21:01;;;;;;;7.27;5.17;;;19.50;99.90;;;;;;4914157;29;20064;-78
2021/08/03 09:23:50;;;;;;;9.70;6.38;;;19.50;99.90;;;;;;4930057;29;20042;-79
2021/08/03 09:26:16;;;;;;;10.73;7.88;;;19.40;99.90;;;;;;4947112;29;20064;-79
2021/08/03 09:29:06;;;;;;;9.13;7.72;;;19.00;99.90;;;;;;4930041;29;20023;-79
2021/08/03 09:31:33;;;;;;;11.20;7.50;;;19.20;99.90;;;;;;4946778;29;20035;-79
2021/08/03 09:34:00;;;;;;;11.05;7.13;;;19.30;99.90;;;;;;4947179;29;20028;-79
2021/08/03 09:36:49;;;;;;;8.57;6.55;;;19.00;99.90;;;;;;4925295;29;20032;-78
2021/08/03 09:39:44;;;;;;;13.52;7.43;;;19.10;99.90;;;;;;4910819;29;20107;-80
2021/08/03 09:42:15;;;;;;;9.80;6.40;;;18.90;99.90;;;;;;4910691;29;20039;-79
2021/08/03 09:44:48;;;;;;;11.98;7.90;;;18.90;99.90;;;;;;4910949;29;20060;-78
2021/08/03 09:47:15;;;;;;;10.35;7.35;;;18.80;99.90;;;;;;4936306;23;20056;-78
2021/08/03 09:49:46;;;;;;;11.43;6.82;;;19.00;99.90;;;;;;4906571;29;20093;-79
2021/08/03 09:52:14;;;;;;;9.38;6.65;;;19.00;99.90;;;;;;4907997;29;20043;-79
2021/08/03 09:54:40;;;;;;;12.60;8.05;;;19.00;99.90;;;;;;4911209;29;20032;-78
2021/08/03 09:57:21;;;;;;;11.73;8.80;;;18.90;99.90;;;;;;4895137;29;20029;-79
2021/08/03 09:59:49;;;;;;;7.93;5.80;;;18.80;99.90;;;;;;4911330;29;20041;-81
2021/08/03 10:02:21;;;;;;;11.80;7.32;;;18.90;99.90;;;;;;4911115;29;20028;-80
2021/08/03 10:04:47;;;;;;;13.55;7.78;;;19.00;99.90;;;;;;4911136;29;20461;-80
2021/08/03 10:07:14;;;;;;;9.80;6.35;;;19.00;99.90;;;;;;4911017;29;20072;-80
2021/08/03 10:09:41;;;;;;;9.05;7.85;;;19.00;99.90;;;;;;4912483;29;20040;-81
2021/08/03 10:12:07;;;;;;;12.40;8.57;;;19.10;99.90;;;;;;4895431;29;20103;-80
2021/08/03 10:14:33;;;;;;;10.45;7.72;;;19.10;99.90;;;;;;4911255;29;20075;-81
2021/08/03 10:16:59;;;;;;;9.63;7.13;;;19.10;99.90;;;;;;4938859;29;20039;-78
2021/08/03 10:19:30;;;;;;;10.98;7.18;;;19.10;99.90;;;;;;4913870;29;20040;-78
2021/08/03 10:22:12;;;;;;;17.33;9.25;;;19.20;99.90;;;;;;4929329;29;20039;-78
2021/08/03 10:24:42;;;;;;;18.33;8.68;;;18.90;99.90;;;;;;4930937;29;20484;-79
2021/08/03 10:27:15;;;;;;;15.05;9.00;;;19.00;99.90;;;;;;4929075;29;20041;-78
2021/08/03 10:29:52;;;;;;;10.50;8.25;;;19.10;99.90;;;;;;4930850;29;20040;-79
2021/08/03 10:32:40;;;;;;;12.43;8.18;;;19.10;99.90;;;;;;4928859;29;20040;-78
2021/08/03 10:35:13;;;;;;;11.82;6.28;;;19.00;99.90;;;;;;4929330;29;20400;-78
2021/08/03 10:37:59;;;;;;;11.85;7.95;;;19.10;99.90;;;;;;4902752;29;20072;-79
2021/08/03 10:40:43;;;;;;;9.93;7.80;;;19.20;99.90;;;;;;4875997;29;20105;-79
2021/08/03 10:43:20;;;;;;;9.95;7.30;;;19.30;99.90;;;;;;4876160;29;20035;-78
2021/08/03 10:45:49;;;;;;;9.70;8.15;;;19.30;99.90;;;;;;4876354;29;20498;-79
2021/08/03 10:48:37;;;;;;;12.35;8.80;;;19.20;99.90;;;;;;4890719;29;20112;-79
2021/08/03 10:54:11;;;;;;;9.10;7.10;;;19.40;99.90;;;;;;4914031;29;20092;-79
2021/08/03 10:56:52;;;;;;;8.40;5.88;;;19.60;99.90;;;;;;4930221;29;20064;-79
2021/08/03 10:59:30;;;;;;;7.32;6.40;;;19.70;99.90;;;;;;4930031;29;20404;-78
2021/08/03 11:01:57;;;;;;;9.13;6.63;;;19.80;99.90;;;;;;4912842;29;20040;-80
2021/08/03 11:04:55;;;;;;;11.18;7.05;;;19.80;99.90;;;;;;4911313;29;20091;-81
2021/08/03 11:07:29;;;;;;;8.90;5.37;;;19.80;99.90;;;;;;4887710;29;20044;-78
2021/08/03 11:10:19;;;;;;;10.18;7.05;;;19.90;99.90;;;;;;4928291;29;20087;-79
2021/08/03 11:12:47;;;;;;;8.40;6.25;;;20.00;99.90;;;;;;4888181;29;20047;-79
2021/08/03 11:15:22;;;;;;;9.10;6.35;;;19.90;99.90;;;;;;4912812;29;20054;-79
2021/08/03 11:17:57;;;;;;;8.93;6.15;;;19.90;99.90;;;;;;4896551;29;20119;-79
2021/08/03 11:20:35;;;;;;;9.82;7.13;;;19.90;99.90;;;;;;4885305;29;20112;-79
2021/08/03 11:23:19;;;;;;;9.35;6.68;;;19.80;99.90;;;;;;4950273;29;20090;-79
2021/08/03 11:25:47;;;;;;;8.60;6.35;;;20.10;99.90;;;;;;4967628;29;20023;-78
2021/08/03 11:28:18;;;;;;;8.80;7.32;;;20.00;99.90;;;;;;4949874;29;20488;-79
2021/08/03 11:30:46;;;;;;;10.70;7.25;;;19.80;99.90;;;;;;4967880;29;20107;-79
2021/08/03 11:33:13;;;;;;;11.52;7.03;;;20.10;99.90;;;;;;4966342;29;20087;-79
2021/08/03 11:35:40;;;;;;;8.35;6.72;;;20.00;99.90;;;;;;4965960;29;20039;-80
2021/08/03 11:38:09;;;;;;;10.90;8.48;;;20.10;99.90;;;;;;4948549;29;20047;-78
2021/08/03 11:40:35;;;;;;;8.30;7.22;;;20.00;99.90;;;;;;4915436;29;20524;-79
2021/08/03 11:43:02;;;;;;;11.50;8.23;;;19.90;99.90;;;;;;4915452;29;20038;-78
2021/08/03 11:45:28;;;;;;;9.93;8.63;;;19.80;99.90;;;;;;4948223;29;20031;-79
2021/08/03 11:47:57;;;;;;;10.90;8.38;;;19.70;99.90;;;;;;4930506;29;20064;-79
2021/08/03 11:50:28;;;;;;;11.07;8.50;;;19.70;99.90;;;;;;4930547;29;20047;-78
2021/08/03 11:53:02;;;;;;;10.23;8.68;;;19.80;99.90;;;;;;4930916;29;20039;-78
2021/08/03 11:55:28;;;;;;;8.13;7.32;;;19.80;99.90;;;;;;4930718;29;20091;-79
2021/08/03 11:57:53;;;;;;;8.73;7.60;;;19.80;99.90;;;;;;4930671;29;20039;-79
2021/08/03 12:00:21;;;;;;;8.70;7.40;;;19.80;99.90;;;;;;4947457;29;20023;-79
2021/08/03 12:02:49;;;;;;;9.52;7.80;;;19.90;99.90;;;;;;4930628;29;20035;-79
2021/08/03 12:05:27;;;;;;;9.50;6.80;;;19.90;99.90;;;;;;4946547;29;20043;-78
2021/08/03 12:08:13;;;;;;;8.85;7.45;;;19.90;99.90;;;;;;4931090;29;20044;-78
2021/08/03 12:10:41;;;;;;;9.80;7.57;;;19.80;99.90;;;;;;4947652;29;20186;-79
2021/08/03 12:13:08;;;;;;;8.90;6.90;;;19.80;99.90;;;;;;4947842;29;20031;-78
2021/08/03 12:15:49;;;;;;;10.02;7.32;;;19.80;99.90;;;;;;4932365;29;20055;-79
2021/08/03 12:18:15;;;;;;;8.18;6.22;;;19.60;99.90;;;;;;4966907;29;20031;-79
2021/08/03 12:20:55;;;;;;;7.95;6.50;;;19.80;99.90;;;;;;4965480;29;20094;-79
2021/08/03 12:23:33;;;;;;;7.63;6.78;;;19.80;99.90;;;;;;4965855;29;20046;-79
2021/08/03 12:26:24;;;;;;;8.18;6.32;;;19.80;99.90;;;;;;4949545;29;20031;-79
2021/08/03 12:28:49;;;;;;;7.63;6.90;;;19.90;99.90;;;;;;4949685;29;20058;-81
2021/08/03 12:31:19;;;;;;;6.85;6.05;;;19.60;99.90;;;;;;4965495;29;20042;-81
2021/08/03 12:33:46;;;;;;;8.32;6.93;;;19.70;99.90;;;;;;4949670;29;20082;-81
2021/08/03 12:36:15;;;;;;;9.32;8.10;;;19.60;99.90;;;;;;4946868;29;20114;-79
2021/08/03 12:38:44;;;;;;;10.23;8.10;;;19.50;99.90;;;;;;4930528;29;20047;-79
2021/08/03 12:41:15;;;;;;;8.77;6.40;;;19.40;99.90;;;;;;4930420;29;20035;-79
2021/08/03 12:43:41;;;;;;;6.57;5.80;;;19.40;99.90;;;;;;4930443;29;20400;-79
2021/08/03 12:46:07;;;;;;;6.32;4.35;;;19.40;99.90;;;;;;4930272;29;20032;-79
2021/08/03 12:48:33;;;;;;;5.32;4.82;;;19.40;99.90;;;;;;4930134;29;20182;-81
2021/08/03 12:51:01;;;;;;;7.97;5.13;;;19.40;99.90;;;;;;4946004;29;20467;-79
2021/08/03 12:53:31;;;;;;;6.18;3.72;;;19.50;99.90;;;;;;4930289;29;20052;-79
2021/08/03 12:56:16;;;;;;;5.68;3.63;;;19.50;99.90;;;;;;4947309;29;20027;-79
2021/08/03 12:58:44;;;;;;;6.75;3.28;;;19.60;99.90;;;;;;4930081;29;20051;-79
2021/08/03 13:01:18;;;;;;;3.90;3.35;;;19.60;99.90;;;;;;4947173;29;20028;-79
2021/08/03 13:03:46;;;;;;;5.93;4.20;;;19.70;99.90;;;;;;4930129;29;20056;-79